Latest Coastal Weather Observations for Browse Island

IDD60701

Issued at 11:45 pm CST Wednesday 23 July 2014 (issued every 10 minutes, with the page automatically refreshed every 10 minutes)

About coastal observations | Map of coastal stations | Coastal observations for NT | Marine services | Other Formats
Station Details ID: 200784 Name: BROWSE ISLAND Lat: -14.11 Lon: 123.55 Height: 3.7 m
Data from the previous 72 hours. | See also: Recent months for locations in Northern Territory
Date/Time
CST
Temp

°C
Wind Pressure Rain
since 9am
mm
Weather Cloud Vis
km
Sea
Height
m
Swell
Dir
 
Speed
knots
Gust
knots
hPa Trend Height
m
Period
s
Dir
23/11:30pm 26.0 W 4 5 1014.2 - - - - - - - - -
23/11:00pm 25.8 S 1 3 1014.2 - - - - - - - - -
23/10:30pm 25.3 CALM 0 0 1013.9 - - - - - - - - -
23/10:00pm 25.4 CALM 0 0 1014.0 - - - - - - - - -
23/09:30pm 25.6 CALM 0 0 1013.8 - - - - - - - - -
23/09:00pm 26.1 SSE 2 3 1013.7 - - - - - - - - -
23/08:30pm 26.0 SSW 3 4 1013.4 - - - - - - - - -
23/08:00pm 26.2 S 5 7 1013.1 - - - - - - - - -
23/07:30pm 26.1 S 7 8 1012.7 - - - - - - - - -
23/07:00pm 26.1 S 7 8 1012.5 - - - - - - - - -
23/06:30pm 26.3 SSE 6 8 1012.3 - - - - - - - - -
23/06:00pm 26.2 SSE 6 8 1012.2 - - - - - - - - -
23/05:30pm 26.1 SSE 7 10 1012.2 - - - - - - - - -
23/05:00pm 26.2 SSE 8 9 1012.4 - - - - - - - - -
23/04:30pm 25.9 SSE 8 11 1012.3 - - - - - - - - -
23/04:00pm 25.6 S 9 11 1012.5 - - - - - - - - -
23/03:30pm 25.7 S 9 12 1012.6 - - - - - - - - -
23/03:00pm 26.0 SSE 9 11 1012.9 - - - - - - - - -
23/02:30pm 26.7 SSE 8 10 1013.2 - - - - - - - - -
23/02:00pm 26.1 S 8 11 1013.6 - - - - - - - - -
23/01:30pm 27.0 SSE 8 9 1013.8 - - - - - - - - -
23/01:00pm 26.2 SSE 8 9 1014.3 - - - - - - - - -
23/12:30pm 26.3 SSE 8 10 1014.6 - - - - - - - - -
23/12:00pm 26.5 SSE 7 9 1015.1 - - - - - - - - -
23/11:30am 26.1 SSE 7 9 1015.4 - - - - - - - - -
23/11:00am 26.1 SE 6 8 1015.5 - - - - - - - - -
23/10:30am 26.1 SE 7 8 1015.6 - - - - - - - - -
23/10:00am 25.8 SE 7 8 1015.6 - - - - - - - - -
23/09:30am 25.5 SE 7 9 1015.4 - - - - - - - - -
23/09:00am 25.4 ESE 6 8 1015.3 - - - - - - - - -
23/08:30am 25.1 SE 6 7 1014.9 - - - - - - - - -
23/08:00am 24.9 SE 6 8 1014.9 - - - - - - - - -
23/07:30am 24.8 ESE 6 8 1014.6 - - - - - - - - -
23/07:00am 24.9 ESE 6 8 1014.5 - - - - - - - - -
23/06:30am 24.8 ESE 6 8 1014.2 - - - - - - - - -
23/06:00am 24.9 ESE 7 8 1014.0 - - - - - - - - -
23/05:30am 25.0 ESE 6 8 1013.8 - - - - - - - - -
23/05:00am 25.1 SE 6 8 1014.1 - - - - - - - - -
23/04:30am 25.1 SE 5 6 1013.9 - - - - - - - - -
23/04:00am 24.9 E 5 6 1014.2 - - - - - - - - -
23/03:30am 24.8 ESE 5 6 1014.0 - - - - - - - - -
23/03:00am 25.1 E 5 7 1014.3 - - - - - - - - -
23/02:30am 25.0 ESE 5 6 1014.4 - - - - - - - - -
23/02:00am 25.4 SE 4 6 1014.8 - - - - - - - - -
23/01:30am 25.4 SSE 4 5 1014.7 - - - - - - - - -
23/01:00am 25.4 ESE 3 4 1014.7 - - - - - - - - -
23/12:30am 25.3 ESE 3 4 1014.6 - - - - - - - - -
23/12:00am 25.5 CALM 0 0 1014.7 - - - - - - - - -
 
Date/Time
CST
Temp

°C
Wind Pressure Rain
since 9am
mm
Weather Cloud Vis
km
Sea
Height
m
Swell
Dir
 
Speed
knots
Gust
knots
hPa Trend Height
m
Period
s
Dir
22/11:30pm 25.3 CALM 0 0 1014.6 - - - - - - - - -
22/11:00pm 25.4 CALM 0 0 1014.8 - - - - - - - - -
22/10:30pm 25.4 CALM 0 0 1014.8 - - - - - - - - -
22/10:00pm 25.6 E 3 4 1014.7 - - - - - - - - -
22/09:30pm 25.7 E 4 5 1014.6 - - - - - - - - -
22/09:00pm 25.5 CALM 0 2 1014.5 - - - - - - - - -
22/08:30pm 25.7 E 3 9 1014.0 - - - - - - - - -
22/08:00pm 25.8 E 8 10 1013.6 - - - - - - - - -
22/07:30pm 25.8 E 8 11 1013.3 - - - - - - - - -
22/07:00pm 26.1 E 7 9 1013.3 - - - - - - - - -
22/06:30pm 26.4 E 7 9 1013.1 - - - - - - - - -
22/06:00pm 26.8 E 8 11 1012.9 - - - - - - - - -
22/05:30pm 26.7 E 9 11 1012.6 - - - - - - - - -
22/05:00pm 27.4 E 9 12 1012.6 - - - - - - - - -
22/04:30pm 27.4 E 9 13 1012.7 - - - - - - - - -
22/04:00pm 27.7 E 9 12 1012.8 - - - - - - - - -
22/03:30pm 27.1 E 10 12 1012.6 - - - - - - - - -
22/03:00pm 27.9 E 10 13 1012.9 - - - - - - - - -
22/02:30pm 27.6 E 11 14 1013.0 - - - - - - - - -
22/02:00pm 26.9 E 10 13 1013.7 - - - - - - - - -
22/01:30pm 27.5 E 12 15 1013.9 - - - - - - - - -
22/01:00pm 27.7 E 12 14 1014.5 - - - - - - - - -
22/12:30pm 27.9 E 10 14 1014.7 - - - - - - - - -
22/12:00pm 27.3 E 9 11 1015.0 - - - - - - - - -
22/11:30am 27.2 E 9 11 1015.3 - - - - - - - - -
22/11:00am 27.9 E 9 12 1015.8 - - - - - - - - -
22/10:30am 27.0 E 10 12 1015.7 - - - - - - - - -
22/10:00am 27.3 E 10 11 1015.8 - - - - - - - - -
22/09:30am 27.3 E 9 11 1015.5 - - - - - - - - -
22/09:00am 26.4 E 8 9 1015.3 - - - - - - - - -
22/08:30am 26.3 E 9 11 1014.9 - - - - - - - - -
22/08:00am 26.2 ENE 11 13 1014.6 - - - - - - - - -
22/07:30am 25.9 ENE 9 11 1014.3 - - - - - - - - -
22/07:00am 25.9 ENE 12 14 1013.7 - - - - - - - - -
22/06:30am 25.7 ENE 11 14 1013.5 - - - - - - - - -
22/06:00am 25.4 NE 14 16 1013.5 - - - - - - - - -
22/05:30am 25.6 NE 15 17 1013.5 - - - - - - - - -
22/05:00am 25.5 NE 13 16 1013.9 - - - - - - - - -
22/04:30am 25.7 NE 13 16 1014.0 - - - - - - - - -
22/04:00am 25.6 NE 11 14 1014.3 - - - - - - - - -
22/03:30am 25.5 NE 10 13 1014.5 - - - - - - - - -
22/03:00am 25.6 NE 11 14 1014.6 - - - - - - - - -
22/02:30am 25.7 NE 10 13 1014.6 - - - - - - - - -
22/02:00am 25.9 NE 11 13 1014.8 - - - - - - - - -
22/01:30am 25.9 NE 11 13 1014.7 - - - - - - - - -
22/01:00am 25.8 NE 10 12 1014.9 - - - - - - - - -
22/12:00am 25.9 NE 9 11 1014.6 - - - - - - - - -
 
Date/Time
CST
Temp

°C
Wind Pressure Rain
since 9am
mm
Weather Cloud Vis
km
Sea
Height
m
Swell
Dir
 
Speed
knots
Gust
knots
hPa Trend Height
m
Period
s
Dir
21/11:30pm 26.0 ENE 7 9 1014.7 - - - - - - - - -
21/11:00pm 26.0 ENE 8 9 1014.9 - - - - - - - - -
21/10:30pm 26.2 ENE 8 10 1014.8 - - - - - - - - -
21/10:00pm 26.1 ENE 8 9 1015.1 - - - - - - - - -
21/09:30pm 26.1 ENE 7 9 1014.9 - - - - - - - - -
21/09:00pm 26.2 ENE 7 9 1014.7 - - - - - - - - -
21/08:30pm 26.1 E 7 8 1014.4 - - - - - - - - -
21/08:00pm 25.9 E 7 9 1014.2 - - - - - - - - -
21/07:30pm 26.0 E 8 9 1013.7 - - - - - - - - -
21/07:00pm 26.0 E 7 9 1013.6 - - - - - - - - -
21/06:30pm 26.2 E 8 10 1013.4 - - - - - - - - -
21/06:00pm 26.4 E 9 11 1013.1 - - - - - - - - -
21/05:30pm 26.9 E 9 12 1012.8 - - - - - - - - -
21/05:00pm 27.1 E 9 12 1012.9 - - - - - - - - -
21/04:30pm 27.0 E 10 12 1012.7 - - - - - - - - -
21/04:00pm 26.9 E 10 11 1013.0 - - - - - - - - -
21/03:30pm 27.2 E 9 12 1013.2 - - - - - - - - -
21/03:00pm 27.3 E 9 11 1013.8 - - - - - - - - -
21/02:30pm 27.3 E 10 13 1014.0 - - - - - - - - -
21/02:00pm 27.2 E 10 12 1014.5 - - - - - - - - -
21/01:30pm 27.5 E 10 13 1014.8 - - - - - - - - -
21/01:00pm 27.5 E 9 11 1015.3 - - - - - - - - -
21/12:30pm 27.2 E 9 12 1015.6 - - - - - - - - -
21/12:00pm 26.6 E 10 12 1016.1 - - - - - - - - -
21/11:30am 27.1 E 9 12 1016.4 - - - - - - - - -
21/11:00am 26.9 E 9 12 1016.7 - - - - - - - - -
21/10:30am 26.5 E 9 11 1016.9 - - - - - - - - -
21/10:00am 26.5 E 8 11 1017.1 - - - - - - - - -
21/09:30am 26.0 E 9 11 1016.9 - - - - - - - - -
21/09:00am 25.8 E 7 11 1016.8 - - - - - - - - -
21/08:30am 25.4 E 8 9 1016.5 - - - - - - - - -
21/08:00am 25.1 E 8 9 1016.2 - - - - - - - - -
21/07:30am 25.1 E 7 9 1015.8 - - - - - - - - -
21/07:00am 25.1 ENE 7 8 1015.7 - - - - - - - - -
21/06:30am 25.1 E 7 9 1015.2 - - - - - - - - -
21/06:00am 25.1 E 7 9 1015.0 - - - - - - - - -
21/05:30am 25.2 ENE 7 8 1014.8 - - - - - - - - -
21/05:00am 25.2 ENE 7 9 1014.7 - - - - - - - - -
21/04:30am 25.1 ENE 7 10 1014.3 - - - - - - - - -
21/04:00am 25.3 ENE 7 8 1014.4 - - - - - - - - -
21/03:30am 25.2 ENE 6 7 1014.4 - - - - - - - - -
21/03:00am 25.2 NE 8 9 1014.5 - - - - - - - - -
21/02:30am 25.1 NE 8 10 1014.4 - - - - - - - - -
21/02:00am 25.3 NE 9 11 1014.6 - - - - - - - - -
21/01:30am 25.3 NE 8 10 1014.6 - - - - - - - - -

Other Formats:

Comma delimited format used in spreadsheet applications
http://www.bom.gov.au/fwo/IDD60701/IDD60701.94103.axf

JavaScript Object Notation format (JSON) in row-major order
http://www.bom.gov.au/fwo/IDD60701/IDD60701.94103.json